sensor_id;sensor_type;location;lat;lon;timestamp;pressure;altitude;pressure_sealevel;temperature;humidity
65983;BME280;52740;40.620;-8.640;2022-08-01T00:01:20;101246.84;;;20.92;100.00
65983;BME280;52740;40.620;-8.640;2022-08-01T00:03:22;101246.75;;;20.96;100.00
65983;BME280;52740;40.620;-8.640;2022-08-01T00:05:22;101248.28;;;21.00;100.00
65983;BME280;52740;40.620;-8.640;2022-08-01T00:07:23;101239.91;;;21.00;100.00
65983;BME280;52740;40.620;-8.640;2022-08-01T00:09:24;101234.19;;;20.88;100.00
65983;BME280;52740;40.620;-8.640;2022-08-01T00:11:25;101229.34;;;20.92;100.00
65983;BME280;52740;40.620;-8.640;2022-08-01T00:13:25;101232.22;;;20.85;100.00
65983;BME280;52740;40.620;-8.640;2022-08-01T00:15:26;101226.31;;;20.83;100.00
65983;BME280;52740;40.620;-8.640;2022-08-01T00:17:27;101230.78;;;20.77;100.00
65983;BME280;52740;40.620;-8.640;2022-08-01T00:19:28;101220.81;;;20.79;100.00
65983;BME280;52740;40.620;-8.640;2022-08-01T00:21:28;101225.28;;;20.73;100.00
65983;BME280;52740;40.620;-8.640;2022-08-01T00:23:30;101220.81;;;20.79;100.00
65983;BME280;52740;40.620;-8.640;2022-08-01T00:25:31;101216.38;;;20.82;100.00
65983;BME280;52740;40.620;-8.640;2022-08-01T00:27:32;101216.44;;;20.78;100.00
65983;BME280;52740;40.620;-8.640;2022-08-01T00:29:33;101226.06;;;20.74;100.00
65983;BME280;52740;40.620;-8.640;2022-08-01T00:31:34;101224.97;;;20.67;100.00
65983;BME280;52740;40.620;-8.640;2022-08-01T00:33:35;101222.19;;;20.67;100.00
65983;BME280;52740;40.620;-8.640;2022-08-01T00:35:35;101224.25;;;20.63;100.00
65983;BME280;52740;40.620;-8.640;2022-08-01T00:37:36;101219.13;;;20.62;100.00
65983;BME280;52740;40.620;-8.640;2022-08-01T00:39:37;101217.09;;;20.62;100.00
65983;BME280;52740;40.620;-8.640;2022-08-01T00:41:38;101217.47;;;20.64;100.00
65983;BME280;52740;40.620;-8.640;2022-08-01T00:43:38;101217.47;;;20.64;100.00
65983;BME280;52740;40.620;-8.640;2022-08-01T00:45:39;101206.22;;;20.72;100.00
65983;BME280;52740;40.620;-8.640;2022-08-01T00:47:40;101213.25;;;20.80;100.00
65983;BME280;52740;40.620;-8.640;2022-08-01T00:49:41;101215.44;;;20.68;100.00
65983;BME280;52740;40.620;-8.640;2022-08-01T00:51:42;101215.06;;;20.66;100.00
65983;BME280;52740;40.620;-8.640;2022-08-01T00:53:43;101211.13;;;20.64;100.00
65983;BME280;52740;40.620;-8.640;2022-08-01T00:55:43;101217.63;;;20.57;100.00
65983;BME280;52740;40.620;-8.640;2022-08-01T00:57:44;101211.97;;;20.61;100.00
65983;BME280;52740;40.620;-8.640;2022-08-01T00:59:45;101211.25;;;20.57;100.00
65983;BME280;52740;40.620;-8.640;2022-08-01T01:01:46;101202.84;;;20.60;100.00
65983;BME280;52740;40.620;-8.640;2022-08-01T01:03:48;101197.59;;;20.66;100.00
65983;BME280;52740;40.620;-8.640;2022-08-01T01:06:23;101194.44;;;20.64;100.00
65983;BME280;52740;40.620;-8.640;2022-08-01T01:08:31;101197.28;;;20.60;100.00
65983;BME280;52740;40.620;-8.640;2022-08-01T01:13:05;101188.06;;;20.63;100.00
65983;BME280;52740;40.620;-8.640;2022-08-01T01:15:11;101177.94;;;20.53;100.00
65983;BME280;52740;40.620;-8.640;2022-08-01T01:17:17;101182.63;;;20.56;100.00
65983;BME280;52740;40.620;-8.640;2022-08-01T01:19:23;101182.56;;;20.60;100.00
65983;BME280;52740;40.620;-8.640;2022-08-01T01:22:46;101179.78;;;20.60;100.00
65983;BME280;52740;40.620;-8.640;2022-08-01T01:24:38;101187.72;;;20.61;100.00
65983;BME280;52740;40.620;-8.640;2022-08-01T01:26:52;101190.13;;;20.59;100.00
65983;BME280;52740;40.620;-8.640;2022-08-01T01:30:58;101180.19;;;20.58;100.00
65983;BME280;52740;40.620;-8.640;2022-08-01T01:33:02;101179.78;;;20.60;100.00
65983;BME280;52740;40.620;-8.640;2022-08-01T01:35:09;101169.94;;;20.55;100.00
65983;BME280;52740;40.620;-8.640;2022-08-01T01:37:15;101170.72;;;20.56;100.00
65983;BME280;52740;40.620;-8.640;2022-08-01T01:39:17;101174.78;;;20.51;100.00
65983;BME280;52740;40.620;-8.640;2022-08-01T01:41:19;101173.31;;;20.43;100.00
65983;BME280;52740;40.620;-8.640;2022-08-01T01:43:21;101178.94;;;20.40;100.00
65983;BME280;52740;40.620;-8.640;2022-08-01T01:45:25;101169.81;;;20.39;100.00
65983;BME280;52740;40.620;-8.640;2022-08-01T01:47:27;101165.28;;;20.49;100.00
65983;BME280;52740;40.620;-8.640;2022-08-01T01:49:28;101165.69;;;20.47;100.00
65983;BME280;52740;40.620;-8.640;2022-08-01T01:51:31;101163.78;;;20.44;100.00
65983;BME280;52740;40.620;-8.640;2022-08-01T01:53:36;101167.38;;;20.41;100.00
65983;BME280;52740;40.620;-8.640;2022-08-01T01:55:39;101164.66;;;20.38;100.00
65983;BME280;52740;40.620;-8.640;2022-08-01T01:57:42;101163.72;;;20.48;100.00
65983;BME280;52740;40.620;-8.640;2022-08-01T01:59:46;101151.53;;;20.38;100.00
65983;BME280;52740;40.620;-8.640;2022-08-01T02:01:49;101153.94;;;20.36;100.00
65983;BME280;52740;40.620;-8.640;2022-08-01T02:03:51;101155.59;;;20.34;100.00
65983;BME280;52740;40.620;-8.640;2022-08-01T02:05:54;101152.41;;;20.35;100.00
65983;BME280;52740;40.620;-8.640;2022-08-01T02:07:56;101153.59;;;20.34;100.00
65983;BME280;52740;40.620;-8.640;2022-08-01T02:09:58;101157.53;;;20.37;100.00
65983;BME280;52740;40.620;-8.640;2022-08-01T02:12:01;101159.88;;;20.38;100.00
65983;BME280;52740;40.620;-8.640;2022-08-01T02:14:04;101158.31;;;20.37;100.00
65983;BME280;52740;40.620;-8.640;2022-08-01T02:16:09;101153.59;;;20.34;100.00
65983;BME280;52740;40.620;-8.640;2022-08-01T02:18:13;101148.03;;;20.34;100.00
65983;BME280;52740;40.620;-8.640;2022-08-01T02:20:16;101159.25;;;20.27;100.00
65983;BME280;52740;40.620;-8.640;2022-08-01T02:22:21;101150.69;;;20.41;100.00
65983;BME280;52740;40.620;-8.640;2022-08-01T02:24:38;101141.75;;;20.30;100.00
65983;BME280;52740;40.620;-8.640;2022-08-01T02:26:46;101146.13;;;20.31;100.00
65983;BME280;52740;40.620;-8.640;2022-08-01T02:28:54;101154.97;;;20.22;100.00
65983;BME280;52740;40.620;-8.640;2022-08-01T02:31:01;101149.44;;;20.19;100.00
65983;BME280;52740;40.620;-8.640;2022-08-01T02:33:06;101150.66;;;20.18;100.00
65983;BME280;52740;40.620;-8.640;2022-08-01T02:35:13;101159.38;;;20.20;100.00
65983;BME280;52740;40.620;-8.640;2022-08-01T02:37:19;101155.38;;;20.21;100.00
65983;BME280;52740;40.620;-8.640;2022-08-01T02:39:22;101155.50;;;20.14;100.00
65983;BME280;52740;40.620;-8.640;2022-08-01T02:41:26;101160.44;;;20.03;100.00
65983;BME280;52740;40.620;-8.640;2022-08-01T02:43:28;101152.88;;;20.03;100.00
65983;BME280;52740;40.620;-8.640;2022-08-01T02:45:31;101152.50;;;20.01;100.00
65983;BME280;52740;40.620;-8.640;2022-08-01T02:47:33;101149.72;;;20.01;100.00
65983;BME280;52740;40.620;-8.640;2022-08-01T02:49:39;101145.34;;;20.04;100.00
65983;BME280;52740;40.620;-8.640;2022-08-01T02:51:43;101143.75;;;20.03;100.00
65983;BME280;52740;40.620;-8.640;2022-08-01T02:53:46;101149.06;;;19.94;100.00
65983;BME280;52740;40.620;-8.640;2022-08-01T02:55:49;101142.50;;;19.80;100.00
65983;BME280;52740;40.620;-8.640;2022-08-01T02:57:52;101132.56;;;19.79;100.00
65983;BME280;52740;40.620;-8.640;2022-08-01T02:59:56;101136.06;;;19.87;100.00
65983;BME280;52740;40.620;-8.640;2022-08-01T03:02:00;101136.34;;;19.93;100.00
65983;BME280;52740;40.620;-8.640;2022-08-01T03:04:04;101136.34;;;19.93;100.00
65983;BME280;52740;40.620;-8.640;2022-08-01T03:06:06;101141.50;;;19.94;100.00
65983;BME280;52740;40.620;-8.640;2022-08-01T03:08:08;101136.25;;;20.00;100.00
65983;BME280;52740;40.620;-8.640;2022-08-01T03:10:10;101139.81;;;20.00;100.00
65983;BME280;52740;40.620;-8.640;2022-08-01T03:12:17;101137.06;;;20.00;100.00
65983;BME280;52740;40.620;-8.640;2022-08-01T03:14:20;101137.06;;;20.00;100.00
65983;BME280;52740;40.620;-8.640;2022-08-01T03:16:22;101148.59;;;19.99;100.00
65983;BME280;52740;40.620;-8.640;2022-08-01T03:18:25;101133.88;;;19.98;100.00
65983;BME280;52740;40.620;-8.640;2022-08-01T03:20:29;101135.88;;;19.98;100.00
65983;BME280;52740;40.620;-8.640;2022-08-01T03:22:32;101131.53;;;19.97;100.00
65983;BME280;52740;40.620;-8.640;2022-08-01T03:24:35;101137.53;;;19.95;100.00
65983;BME280;52740;40.620;-8.640;2022-08-01T03:26:38;101124.81;;;19.94;100.00
65983;BME280;52740;40.620;-8.640;2022-08-01T03:28:41;101132.84;;;19.89;100.00
65983;BME280;52740;40.620;-8.640;2022-08-01T03:30:43;101136.88;;;19.84;100.00
65983;BME280;52740;40.620;-8.640;2022-08-01T03:32:45;101136.88;;;19.84;100.00
65983;BME280;52740;40.620;-8.640;2022-08-01T03:34:46;101139.25;;;19.86;100.00
65983;BME280;52740;40.620;-8.640;2022-08-01T03:37:10;101136.94;;;19.80;100.00
65983;BME280;52740;40.620;-8.640;2022-08-01T03:39:10;101141.75;;;19.76;100.00
65983;BME280;52740;40.620;-8.640;2022-08-01T03:41:16;101146.31;;;19.63;100.00
65983;BME280;52740;40.620;-8.640;2022-08-01T03:43:22;101138.09;;;19.56;100.00
65983;BME280;52740;40.620;-8.640;2022-08-01T03:45:36;101139.19;;;19.62;100.00
65983;BME280;52740;40.620;-8.640;2022-08-01T03:47:42;101131.75;;;19.56;100.00
65983;BME280;52740;40.620;-8.640;2022-08-01T03:49:44;101130.97;;;19.55;100.00
65983;BME280;52740;40.620;-8.640;2022-08-01T03:51:49;101138.91;;;19.53;100.00
65983;BME280;52740;40.620;-8.640;2022-08-01T03:53:51;101135.78;;;19.51;100.00
65983;BME280;52740;40.620;-8.640;2022-08-01T03:55:53;101142.19;;;19.48;100.00
65983;BME280;52740;40.620;-8.640;2022-08-01T03:57:55;101142.63;;;19.43;100.00
65983;BME280;52740;40.620;-8.640;2022-08-01T03:59:57;101146.16;;;19.47;100.00
65983;BME280;52740;40.620;-8.640;2022-08-01T04:01:59;101146.97;;;19.44;100.00
65983;BME280;52740;40.620;-8.640;2022-08-01T04:04:00;101143.00;;;19.45;100.00
65983;BME280;52740;40.620;-8.640;2022-08-01T04:06:05;101142.22;;;19.41;100.00
65983;BME280;52740;40.620;-8.640;2022-08-01T04:08:08;101149.44;;;19.35;100.00
65983;BME280;52740;40.620;-8.640;2022-08-01T04:10:09;101146.66;;;19.35;100.00
65983;BME280;52740;40.620;-8.640;2022-08-01T04:12:10;101147.88;;;19.34;100.00
65983;BME280;52740;40.620;-8.640;2022-08-01T04:14:11;101158.94;;;19.38;100.00
65983;BME280;52740;40.620;-8.640;2022-08-01T04:16:11;101151.78;;;19.44;100.00
65983;BME280;52740;40.620;-8.640;2022-08-01T04:18:12;101160.16;;;19.36;100.00
65983;BME280;52740;40.620;-8.640;2022-08-01T04:20:14;101158.16;;;19.37;100.00
65983;BME280;52740;40.620;-8.640;2022-08-01T04:22:16;101158.91;;;19.41;100.00
65983;BME280;52740;40.620;-8.640;2022-08-01T04:24:18;101161.31;;;19.39;100.00
65983;BME280;52740;40.620;-8.640;2022-08-01T04:26:21;101157.41;;;19.33;100.00
65983;BME280;52740;40.620;-8.640;2022-08-01T04:28:24;101158.16;;;19.37;100.00
65983;BME280;52740;40.620;-8.640;2022-08-01T04:30:28;101163.72;;;19.37;100.00
65983;BME280;52740;40.620;-8.640;2022-08-01T04:32:34;101151.63;;;19.20;100.00
65983;BME280;52740;40.620;-8.640;2022-08-01T04:34:37;101161.84;;;19.27;100.00
65983;BME280;52740;40.620;-8.640;2022-08-01T04:36:40;101161.59;;;19.14;100.00
65983;BME280;52740;40.620;-8.640;2022-08-01T04:38:48;101163.09;;;19.22;100.00
65983;BME280;52740;40.620;-8.640;2022-08-01T04:40:51;101160.38;;;19.19;100.00
65983;BME280;52740;40.620;-8.640;2022-08-01T04:42:53;101165.97;;;19.15;100.00
65983;BME280;52740;40.620;-8.640;2022-08-01T04:44:53;101172.75;;;19.11;100.00
65983;BME280;52740;40.620;-8.640;2022-08-01T04:46:54;101175.16;;;19.09;100.00
65983;BME280;52740;40.620;-8.640;2022-08-01T04:48:57;101175.97;;;19.06;100.00
65983;BME280;52740;40.620;-8.640;2022-08-01T04:50:58;101183.97;;;19.04;100.00
65983;BME280;52740;40.620;-8.640;2022-08-01T04:52:59;101185.59;;;18.98;100.00
65983;BME280;52740;40.620;-8.640;2022-08-01T04:55:05;101194.38;;;18.92;100.00
65983;BME280;52740;40.620;-8.640;2022-08-01T04:57:08;101191.16;;;18.98;100.00
65983;BME280;52740;40.620;-8.640;2022-08-01T04:59:09;101197.09;;;18.96;100.00
65983;BME280;52740;40.620;-8.640;2022-08-01T05:01:28;101198.31;;;18.95;100.00
65983;BME280;52740;40.620;-8.640;2022-08-01T05:03:29;101199.94;;;18.92;100.00
65983;BME280;52740;40.620;-8.640;2022-08-01T05:05:30;101218.06;;;19.01;100.00
65983;BME280;52740;40.620;-8.640;2022-08-01T05:07:32;101211.78;;;18.97;100.00
65983;BME280;52740;40.620;-8.640;2022-08-01T05:09:33;101211.03;;;18.92;100.00
65983;BME280;52740;40.620;-8.640;2022-08-01T05:11:35;101214.16;;;18.98;100.00
65983;BME280;52740;40.620;-8.640;2022-08-01T05:13:35;101215.75;;;18.96;100.00
65983;BME280;52740;40.620;-8.640;2022-08-01T05:15:36;101215.78;;;18.92;100.00
65983;BME280;52740;40.620;-8.640;2022-08-01T05:17:37;101224.53;;;18.90;100.00
65983;BME280;52740;40.620;-8.640;2022-08-01T05:19:39;101221.78;;;18.90;100.00
65983;BME280;52740;40.620;-8.640;2022-08-01T05:21:40;101224.53;;;18.90;100.00
65983;BME280;52740;40.620;-8.640;2022-08-01T05:23:41;101223.78;;;18.86;100.00
65983;BME280;52740;40.620;-8.640;2022-08-01T05:25:42;101229.34;;;18.86;100.00
65983;BME280;52740;40.620;-8.640;2022-08-01T05:27:43;101228.59;;;18.79;100.00
65983;BME280;52740;40.620;-8.640;2022-08-01T05:29:44;101230.97;;;18.80;100.00
65983;BME280;52740;40.620;-8.640;2022-08-01T05:31:45;101236.84;;;18.89;100.00
65983;BME280;52740;40.620;-8.640;2022-08-01T05:33:45;101235.56;;;18.98;100.00
65983;BME280;52740;40.620;-8.640;2022-08-01T05:35:46;101236.50;;;18.84;100.00
65983;BME280;52740;40.620;-8.640;2022-08-01T05:37:47;101239.53;;;18.97;100.00
65983;BME280;52740;40.620;-8.640;2022-08-01T05:39:48;101241.13;;;18.98;100.00
65983;BME280;52740;40.620;-8.640;2022-08-01T05:41:49;101234.72;;;19.04;100.00
65983;BME280;52740;40.620;-8.640;2022-08-01T05:43:49;101241.03;;;19.05;100.00
65983;BME280;52740;40.620;-8.640;2022-08-01T05:45:50;101237.81;;;19.10;100.00
65983;BME280;52740;40.620;-8.640;2022-08-01T05:47:51;101232.66;;;19.12;100.00
65983;BME280;52740;40.620;-8.640;2022-08-01T05:49:52;101243.47;;;19.03;100.00
65983;BME280;52740;40.620;-8.640;2022-08-01T05:51:52;101232.00;;;18.97;100.00
65983;BME280;52740;40.620;-8.640;2022-08-01T05:53:54;101245.84;;;19.01;100.00
65983;BME280;52740;40.620;-8.640;2022-08-01T05:55:55;101251.34;;;19.08;100.00
65983;BME280;52740;40.620;-8.640;2022-08-01T05:57:55;101248.53;;;19.11;100.00
65983;BME280;52740;40.620;-8.640;2022-08-01T05:59:56;101244.09;;;19.17;100.00
65983;BME280;52740;40.620;-8.640;2022-08-01T06:01:57;101248.94;;;19.10;100.00
65983;BME280;52740;40.620;-8.640;2022-08-01T06:03:58;101240.06;;;19.22;100.00
65983;BME280;52740;40.620;-8.640;2022-08-01T06:05:59;101236.47;;;19.25;100.00
65983;BME280;52740;40.620;-8.640;2022-08-01T06:08:00;101233.28;;;19.26;100.00
65983;BME280;52740;40.620;-8.640;2022-08-01T06:10:01;101243.06;;;19.38;100.00
65983;BME280;52740;40.620;-8.640;2022-08-01T06:12:02;101242.97;;;19.49;100.00
65983;BME280;52740;40.620;-8.640;2022-08-01T06:14:04;101244.38;;;19.64;100.00
65983;BME280;52740;40.620;-8.640;2022-08-01T06:16:05;101232.19;;;19.85;100.00
65983;BME280;52740;40.620;-8.640;2022-08-01T06:18:05;101229.97;;;20.30;100.00
65983;BME280;52740;40.620;-8.640;2022-08-01T06:20:07;101212.88;;;20.78;100.00
65983;BME280;52740;40.620;-8.640;2022-08-01T06:22:08;101214.91;;;21.20;100.00
65983;BME280;52740;40.620;-8.640;2022-08-01T06:24:09;101217.41;;;21.90;100.00
65983;BME280;52740;40.620;-8.640;2022-08-01T06:26:10;101204.97;;;22.46;100.00
65983;BME280;52740;40.620;-8.640;2022-08-01T06:28:11;101204.66;;;22.89;100.00
65983;BME280;52740;40.620;-8.640;2022-08-01T06:30:12;101210.66;;;23.33;100.00
65983;BME280;52740;40.620;-8.640;2022-08-01T06:32:13;101207.63;;;23.56;100.00
65983;BME280;52740;40.620;-8.640;2022-08-01T06:34:13;101204.47;;;23.67;100.00
65983;BME280;52740;40.620;-8.640;2022-08-01T06:36:15;101199.69;;;24.05;100.00
65983;BME280;52740;40.620;-8.640;2022-08-01T06:38:16;101209.78;;;24.03;100.00
65983;BME280;52740;40.620;-8.640;2022-08-01T06:40:17;101207.53;;;23.72;100.00
65983;BME280;52740;40.620;-8.640;2022-08-01T06:42:18;101210.31;;;23.85;100.00
65983;BME280;52740;40.620;-8.640;2022-08-01T06:44:19;101209.19;;;23.70;100.00
65983;BME280;52740;40.620;-8.640;2022-08-01T06:46:19;101216.59;;;23.76;100.00
65983;BME280;52740;40.620;-8.640;2022-08-01T06:48:20;101213.56;;;23.84;100.00
65983;BME280;52740;40.620;-8.640;2022-08-01T06:50:21;101212.66;;;23.74;100.00
65983;BME280;52740;40.620;-8.640;2022-08-01T06:52:22;101214.19;;;23.50;100.00
65983;BME280;52740;40.620;-8.640;2022-08-01T06:54:22;101211.28;;;23.66;100.00
65983;BME280;52740;40.620;-8.640;2022-08-01T06:56:23;101215.13;;;23.97;100.00
65983;BME280;52740;40.620;-8.640;2022-08-01T06:58:24;101215.56;;;24.59;100.00
65983;BME280;52740;40.620;-8.640;2022-08-01T07:00:25;101218.44;;;25.37;100.00
65983;BME280;52740;40.620;-8.640;2022-08-01T07:02:26;101216.19;;;25.97;100.00
65983;BME280;52740;40.620;-8.640;2022-08-01T07:04:27;101219.97;;;26.61;100.00
65983;BME280;52740;40.620;-8.640;2022-08-01T07:06:28;101226.31;;;27.02;100.00
65983;BME280;52740;40.620;-8.640;2022-08-01T07:08:29;101219.53;;;27.63;100.00
65983;BME280;52740;40.620;-8.640;2022-08-01T07:10:29;101217.69;;;28.11;100.00
65983;BME280;52740;40.620;-8.640;2022-08-01T07:12:30;101216.19;;;28.81;100.00
65983;BME280;52740;40.620;-8.640;2022-08-01T07:14:31;101219.09;;;28.63;100.00
65983;BME280;52740;40.620;-8.640;2022-08-01T07:16:32;101214.81;;;29.15;100.00
65983;BME280;52740;40.620;-8.640;2022-08-01T07:18:33;101219.78;;;29.20;100.00
65983;BME280;52740;40.620;-8.640;2022-08-01T07:20:33;101234.53;;;29.83;100.00
65983;BME280;52740;40.620;-8.640;2022-08-01T07:22:34;101223.75;;;30.66;93.39
65983;BME280;52740;40.620;-8.640;2022-08-01T07:24:35;101223.53;;;30.69;89.17
65983;BME280;52740;40.620;-8.640;2022-08-01T07:26:36;101212.00;;;30.73;89.47
65983;BME280;52740;40.620;-8.640;2022-08-01T07:28:37;101215.78;;;31.30;86.26
65983;BME280;52740;40.620;-8.640;2022-08-01T07:30:37;101219.22;;;31.66;84.64
65983;BME280;52740;40.620;-8.640;2022-08-01T07:32:38;101227.78;;;31.71;80.75
65983;BME280;52740;40.620;-8.640;2022-08-01T07:34:39;101229.66;;;31.80;81.68
65983;BME280;52740;40.620;-8.640;2022-08-01T07:36:40;101223.59;;;32.72;74.54
65983;BME280;52740;40.620;-8.640;2022-08-01T07:38:41;101222.56;;;32.75;71.09
65983;BME280;52740;40.620;-8.640;2022-08-01T07:40:42;101219.78;;;32.81;72.08
65983;BME280;52740;40.620;-8.640;2022-08-01T07:42:43;101224.75;;;33.08;69.40
65983;BME280;52740;40.620;-8.640;2022-08-01T07:44:45;101236.09;;;33.02;70.61
65983;BME280;52740;40.620;-8.640;2022-08-01T07:46:45;101220.06;;;32.94;70.34
65983;BME280;52740;40.620;-8.640;2022-08-01T07:48:46;101227.97;;;33.49;68.32
65983;BME280;52740;40.620;-8.640;2022-08-01T07:50:47;101226.47;;;33.81;63.47
65983;BME280;52740;40.620;-8.640;2022-08-01T07:52:48;101230.09;;;33.87;63.47
65983;BME280;52740;40.620;-8.640;2022-08-01T07:54:48;101237.50;;;34.52;60.61
65983;BME280;52740;40.620;-8.640;2022-08-01T07:56:50;101233.50;;;34.88;59.92
65983;BME280;52740;40.620;-8.640;2022-08-01T07:58:51;101238.22;;;34.74;57.77
65983;BME280;52740;40.620;-8.640;2022-08-01T08:00:51;101240.53;;;34.76;57.79
65983;BME280;52740;40.620;-8.640;2022-08-01T08:02:52;101237.88;;;35.41;54.67
65983;BME280;52740;40.620;-8.640;2022-08-01T08:04:54;101238.50;;;35.64;53.18
65983;BME280;52740;40.620;-8.640;2022-08-01T08:06:54;101230.53;;;35.51;52.77
65983;BME280;52740;40.620;-8.640;2022-08-01T08:08:55;101232.09;;;35.52;54.01
65983;BME280;52740;40.620;-8.640;2022-08-01T08:10:56;101227.13;;;35.58;51.87
65983;BME280;52740;40.620;-8.640;2022-08-01T08:12:57;101225.00;;;35.70;52.55
65983;BME280;52740;40.620;-8.640;2022-08-01T08:14:58;101229.25;;;35.52;52.94
65983;BME280;52740;40.620;-8.640;2022-08-01T08:17:00;101233.81;;;36.26;49.84
65983;BME280;52740;40.620;-8.640;2022-08-01T08:19:01;101227.91;;;36.24;48.30
65983;BME280;52740;40.620;-8.640;2022-08-01T08:21:02;101227.81;;;36.54;47.68
65983;BME280;52740;40.620;-8.640;2022-08-01T08:23:02;101229.59;;;36.81;47.44
65983;BME280;52740;40.620;-8.640;2022-08-01T08:25:23;101221.56;;;37.36;45.52
65983;BME280;52740;40.620;-8.640;2022-08-01T08:27:24;101221.50;;;38.31;43.10
65983;BME280;52740;40.620;-8.640;2022-08-01T08:29:26;101217.50;;;37.95;42.56
65983;BME280;52740;40.620;-8.640;2022-08-01T08:31:27;101215.31;;;38.01;41.45
65983;BME280;52740;40.620;-8.640;2022-08-01T08:33:28;101216.03;;;37.57;42.44
65983;BME280;52740;40.620;-8.640;2022-08-01T08:35:29;101216.31;;;37.21;43.82
65983;BME280;52740;40.620;-8.640;2022-08-01T08:37:29;101215.69;;;37.47;43.37
65983;BME280;52740;40.620;-8.640;2022-08-01T08:39:30;101215.03;;;37.86;42.25
65983;BME280;52740;40.620;-8.640;2022-08-01T08:41:32;101223.25;;;38.08;40.98
65983;BME280;52740;40.620;-8.640;2022-08-01T08:43:35;101219.28;;;38.24;41.72
65983;BME280;52740;40.620;-8.640;2022-08-01T08:45:35;101215.78;;;38.58;40.75
65983;BME280;52740;40.620;-8.640;2022-08-01T08:47:36;101220.03;;;37.99;41.72
65983;BME280;52740;40.620;-8.640;2022-08-01T08:49:37;101226.13;;;37.76;41.32
65983;BME280;52740;40.620;-8.640;2022-08-01T08:51:39;101216.22;;;37.45;42.58
65983;BME280;52740;40.620;-8.640;2022-08-01T08:53:41;101217.19;;;37.67;42.76
65983;BME280;52740;40.620;-8.640;2022-08-01T08:55:45;101209.50;;;37.43;43.08
65983;BME280;52740;40.620;-8.640;2022-08-01T08:57:46;101212.47;;;37.19;43.46
65983;BME280;52740;40.620;-8.640;2022-08-01T08:59:48;101213.66;;;38.06;41.53
65983;BME280;52740;40.620;-8.640;2022-08-01T09:01:52;101210.28;;;38.20;41.63
65983;BME280;52740;40.620;-8.640;2022-08-01T09:03:53;101214.88;;;38.10;41.25
65983;BME280;52740;40.620;-8.640;2022-08-01T09:05:54;101210.44;;;37.96;41.98
65983;BME280;52740;40.620;-8.640;2022-08-01T09:07:54;101212.50;;;38.54;40.15
65983;BME280;52740;40.620;-8.640;2022-08-01T09:09:55;101205.41;;;38.94;38.93
65983;BME280;52740;40.620;-8.640;2022-08-01T09:11:56;101222.31;;;39.52;37.78
65983;BME280;52740;40.620;-8.640;2022-08-01T09:16:16;101217.13;;;40.41;36.50
65983;BME280;52740;40.620;-8.640;2022-08-01T09:18:39;101222.84;;;39.51;37.97
65983;BME280;52740;40.620;-8.640;2022-08-01T09:20:41;101219.28;;;38.90;38.07
65983;BME280;52740;40.620;-8.640;2022-08-01T09:22:41;101219.72;;;38.81;37.86
65983;BME280;52740;40.620;-8.640;2022-08-01T09:24:42;101220.06;;;38.91;38.45
65983;BME280;52740;40.620;-8.640;2022-08-01T09:26:56;101216.78;;;39.20;39.02
65983;BME280;52740;40.620;-8.640;2022-08-01T09:28:58;101218.44;;;38.69;40.33
65983;BME280;52740;40.620;-8.640;2022-08-01T09:31:11;101219.44;;;37.87;41.67
65983;BME280;52740;40.620;-8.640;2022-08-01T09:33:12;101222.72;;;37.78;41.98
65983;BME280;52740;40.620;-8.640;2022-08-01T09:35:27;101214.91;;;37.78;41.57
65983;BME280;52740;40.620;-8.640;2022-08-01T09:37:31;101217.44;;;38.66;40.06
65983;BME280;52740;40.620;-8.640;2022-08-01T09:39:37;101221.22;;;38.48;39.21
65983;BME280;52740;40.620;-8.640;2022-08-01T09:41:40;101218.44;;;38.43;40.06
65983;BME280;52740;40.620;-8.640;2022-08-01T09:43:48;101216.41;;;39.03;38.75
65983;BME280;52740;40.620;-8.640;2022-08-01T09:45:50;101217.97;;;38.91;38.35
65983;BME280;52740;40.620;-8.640;2022-08-01T09:47:51;101211.94;;;38.68;37.12
65983;BME280;52740;40.620;-8.640;2022-08-01T09:49:56;101213.44;;;38.96;37.68
65983;BME280;52740;40.620;-8.640;2022-08-01T09:52:00;101216.88;;;38.42;39.64
65983;BME280;52740;40.620;-8.640;2022-08-01T09:54:09;101218.19;;;38.14;39.93
65983;BME280;52740;40.620;-8.640;2022-08-01T09:56:11;101216.31;;;37.21;42.70
65983;BME280;52740;40.620;-8.640;2022-08-01T09:58:12;101218.16;;;36.81;44.25
65983;BME280;52740;40.620;-8.640;2022-08-01T10:00:17;101215.25;;;35.54;48.42
65983;BME280;52740;40.620;-8.640;2022-08-01T10:02:39;101212.81;;;35.69;49.50
65983;BME280;52740;40.620;-8.640;2022-08-01T10:04:47;101212.16;;;35.88;50.12
65983;BME280;52740;40.620;-8.640;2022-08-01T10:06:50;101211.00;;;36.26;49.34
65983;BME280;52740;40.620;-8.640;2022-08-01T10:08:54;101212.28;;;36.74;48.16
65983;BME280;52740;40.620;-8.640;2022-08-01T10:11:08;101213.28;;;36.03;48.75
65983;BME280;52740;40.620;-8.640;2022-08-01T10:13:10;101215.22;;;36.44;47.88
65983;BME280;52740;40.620;-8.640;2022-08-01T10:15:15;101222.53;;;36.39;48.14
65983;BME280;52740;40.620;-8.640;2022-08-01T10:17:18;101214.75;;;36.64;47.35
65983;BME280;52740;40.620;-8.640;2022-08-01T10:19:22;101215.97;;;37.43;45.64
65983;BME280;52740;40.620;-8.640;2022-08-01T10:21:26;101216.78;;;37.76;43.69
65983;BME280;52740;40.620;-8.640;2022-08-01T10:23:33;101223.47;;;37.46;43.87
65983;BME280;52740;40.620;-8.640;2022-08-01T10:25:37;101222.47;;;36.88;45.61
65983;BME280;52740;40.620;-8.640;2022-08-01T10:27:42;101222.91;;;36.73;46.89
65983;BME280;52740;40.620;-8.640;2022-08-01T10:29:54;101223.19;;;36.94;45.92
65983;BME280;52740;40.620;-8.640;2022-08-01T10:31:56;101224.03;;;36.89;45.70
65983;BME280;52740;40.620;-8.640;2022-08-01T10:33:57;101221.09;;;37.32;44.50
65983;BME280;52740;40.620;-8.640;2022-08-01T10:35:58;101226.22;;;38.03;43.41